Terminal Aerodrome Forecast
Issued by NWS

Home | Current Version | Previous Version | Text Only | Print | Product List | Glossary On
Versions: 1 2 3 4 5 6 7 8 9 10 11 12 13 14 15 16
000
FTUS43 KIND 251100
TAFLAF
TAF
KLAF 251120Z 2512/2612 20015G25KT P6SM -SHRA SCT015 OVC040
     FM251500 21015G27KT P6SM VCTS BKN025CB
     FM251800 22015G29KT P6SM OVC035
     FM260000 19010G18KT P6SM OVC040
     FM260400 17007KT 5SM BR OVC030
      AMD LTD TO CLD VIS AND WIND TIL 251300=

USA.gov is the U.S. government's official web portal to all federal, state and local government web resources and services.